createdAt,value
2022-12-28T00:02:26.829Z,14.80
2022-12-28T00:04:55.792Z,11.60
2022-12-28T00:07:24.286Z,11.80
2022-12-28T00:09:53.150Z,11.80
2022-12-28T00:12:22.145Z,8.00
2022-12-28T00:14:51.079Z,16.60
2022-12-28T00:17:19.614Z,10.80
2022-12-28T00:19:49.896Z,15.00
2022-12-28T00:22:18.381Z,12.40
2022-12-28T00:24:47.356Z,14.40
2022-12-28T00:27:15.909Z,12.60
2022-12-28T00:29:44.792Z,12.80
2022-12-28T00:32:13.432Z,13.60
2022-12-28T00:34:42.274Z,11.00
2022-12-28T00:37:13.331Z,12.00
2022-12-28T00:39:43.668Z,8.80
2022-12-28T00:42:16.586Z,13.60
2022-12-28T00:44:45.576Z,13.40
2022-12-28T00:47:17.446Z,8.60
2022-12-28T00:49:46.319Z,10.00
2022-12-28T00:52:16.232Z,10.00
2022-12-28T00:54:45.177Z,6.80
2022-12-28T00:57:13.668Z,7.80
2022-12-28T00:59:42.466Z,10.00
2022-12-28T01:02:11.084Z,11.60
2022-12-28T01:04:40.117Z,11.60
2022-12-28T01:07:08.949Z,9.40
2022-12-28T01:09:39.206Z,9.60
2022-12-28T01:12:07.998Z,12.60
2022-12-28T01:14:36.870Z,12.40
2022-12-28T01:17:05.470Z,12.20
2022-12-28T01:19:34.357Z,11.80
2022-12-28T01:22:03.087Z,11.00
2022-12-28T01:24:31.858Z,13.40
2022-12-28T01:27:03.482Z,14.80
2022-12-28T01:29:32.658Z,13.40
2022-12-28T01:32:01.283Z,18.80
2022-12-28T01:34:31.529Z,20.80
2022-12-28T01:37:00.051Z,15.40
2022-12-28T01:39:29.521Z,18.80
2022-12-28T01:41:58.360Z,18.80
2022-12-28T01:44:51.334Z,25.60
2022-12-28T01:47:25.067Z,27.20
2022-12-28T01:50:02.964Z,25.00
2022-12-28T01:52:36.997Z,24.20
2022-12-28T01:55:10.228Z,22.20
2022-12-28T01:57:43.671Z,25.60
2022-12-28T02:00:16.515Z,30.00
2022-12-28T02:02:53.728Z,24.40
2022-12-28T02:05:27.674Z,27.40
2022-12-28T02:08:03.288Z,31.00
2022-12-28T02:10:43.571Z,26.80
2022-12-28T02:13:15.492Z,29.20
2022-12-28T02:15:46.607Z,26.40
2022-12-28T02:18:17.345Z,25.60
2022-12-28T02:21:08.520Z,24.80
2022-12-28T02:23:48.672Z,29.60
2022-12-28T02:26:44.648Z,33.40
2022-12-28T02:29:42.701Z,27.20
2022-12-28T02:32:20.387Z,30.80
2022-12-28T02:34:57.201Z,36.50
2022-12-28T02:37:29.300Z,34.67
2022-12-28T02:40:02.901Z,32.00
2022-12-28T02:42:32.624Z,44.25
2022-12-28T02:45:20.297Z,37.50
2022-12-28T02:48:07.411Z,37.75
2022-12-28T02:50:48.073Z,37.00
2022-12-28T02:53:34.480Z,37.25
2022-12-28T02:56:16.509Z,26.50
2022-12-28T02:59:19.104Z,26.50
2022-12-28T03:02:09.097Z,33.00
2022-12-28T03:04:54.962Z,29.00
2022-12-28T03:07:49.203Z,29.60
2022-12-28T03:10:26.352Z,28.20
2022-12-28T03:13:02.622Z,26.60
2022-12-28T03:15:38.579Z,26.50
2022-12-28T03:18:32.101Z,28.00
2022-12-28T03:21:23.629Z,29.40
2022-12-28T03:24:11.778Z,31.00
2022-12-28T03:27:05.791Z,27.25
2022-12-28T03:30:01.247Z,29.75
2022-12-28T03:32:31.086Z,36.25
2022-12-28T03:35:01.509Z,21.25
2022-12-28T03:37:39.105Z,23.00
2022-12-28T03:40:23.863Z,25.00
2022-12-28T03:43:12.996Z,24.75
2022-12-28T03:45:50.400Z,21.20
2022-12-28T03:48:23.301Z,21.80
2022-12-28T03:50:56.371Z,26.40
2022-12-28T03:53:30.231Z,19.20
2022-12-28T03:56:11.919Z,25.60
2022-12-28T03:58:42.209Z,29.00
2022-12-28T04:01:10.903Z,30.00
2022-12-28T04:03:44.508Z,29.40
2022-12-28T04:06:17.034Z,31.50
2022-12-28T04:08:47.592Z,31.50
2022-12-28T04:11:16.312Z,25.00
2022-12-28T04:13:50.320Z,28.50
2022-12-28T04:16:20.226Z,29.25
2022-12-28T04:18:49.025Z,31.00
2022-12-28T04:21:19.033Z,24.25
2022-12-28T04:23:47.860Z,24.20
2022-12-28T04:26:22.822Z,24.20
2022-12-28T04:28:54.631Z,22.80
2022-12-28T04:31:49.349Z,24.20
2022-12-28T04:34:21.355Z,24.40
2022-12-28T04:36:59.397Z,20.60
2022-12-28T04:39:55.560Z,18.60
2022-12-28T04:42:18.239Z,23.60
2022-12-28T04:44:47.207Z,20.20
2022-12-28T04:47:15.808Z,21.60
2022-12-28T04:49:44.728Z,40.75
2022-12-28T04:52:15.027Z,34.00
2022-12-28T04:54:44.596Z,27.60
2022-12-28T04:57:13.193Z,24.20
2022-12-28T04:59:42.029Z,18.20
2022-12-28T05:02:10.907Z,20.20
2022-12-28T05:04:39.902Z,77.00
2022-12-28T05:07:08.440Z,29.00
2022-12-28T05:09:38.860Z,21.40
2022-12-28T05:12:07.802Z,29.40
2022-12-28T05:14:37.361Z,23.20
2022-12-28T05:17:06.135Z,31.75
2022-12-28T05:19:35.012Z,33.50
2022-12-28T05:22:03.606Z,40.25
2022-12-28T05:24:32.581Z,38.50
2022-12-28T05:27:02.505Z,64.00
2022-12-28T05:29:31.386Z,46.50
2022-12-28T05:32:00.040Z,70.50
2022-12-28T05:34:28.918Z,39.25
2022-12-28T05:36:57.500Z,34.00
2022-12-28T05:39:26.335Z,39.50
2022-12-28T05:41:54.893Z,42.25
2022-12-28T05:44:25.256Z,32.00
2022-12-28T05:46:53.888Z,35.25
2022-12-28T05:49:22.878Z,30.00
2022-12-28T05:51:51.827Z,21.40
2022-12-28T05:54:20.691Z,29.00
2022-12-28T05:56:52.544Z,35.50
2022-12-28T05:59:21.450Z,57.25
2022-12-28T06:01:51.509Z,61.00
2022-12-28T06:04:21.502Z,47.25
2022-12-28T06:06:50.855Z,42.50
2022-12-28T06:09:19.863Z,42.50
2022-12-28T06:11:48.501Z,38.00
2022-12-28T06:14:17.425Z,33.75
2022-12-28T06:16:46.102Z,61.00
2022-12-28T06:19:16.344Z,60.50
2022-12-28T06:21:45.285Z,45.50
2022-12-28T06:24:14.839Z,40.75
2022-12-28T06:26:43.493Z,41.50
2022-12-28T06:29:12.793Z,46.25
2022-12-28T06:31:45.085Z,54.25
2022-12-28T06:34:14.169Z,52.50
2022-12-28T06:36:46.627Z,44.25
2022-12-28T06:39:16.025Z,41.25
2022-12-28T06:41:44.910Z,37.00
2022-12-28T06:44:15.476Z,48.25
2022-12-28T06:46:44.059Z,59.75
2022-12-28T06:49:13.264Z,55.50
2022-12-28T06:51:43.126Z,50.00
2022-12-28T06:54:12.525Z,45.75
2022-12-28T06:56:41.277Z,45.50
2022-12-28T06:59:10.151Z,28.75
2022-12-28T07:01:40.569Z,36.75
2022-12-28T07:04:11.491Z,40.75
2022-12-28T07:06:42.553Z,41.25
2022-12-28T07:09:14.756Z,41.00
2022-12-28T07:11:43.864Z,39.00
2022-12-28T07:14:13.404Z,29.00
2022-12-28T07:16:42.558Z,32.20
2022-12-28T07:19:11.652Z,43.25
2022-12-28T07:21:41.169Z,31.00
2022-12-28T07:24:10.483Z,26.25
2022-12-28T07:26:40.319Z,26.60
2022-12-28T07:29:10.027Z,26.00
2022-12-28T07:31:45.264Z,29.80
2022-12-28T07:34:15.323Z,21.40
2022-12-28T07:36:44.254Z,31.25
2022-12-28T07:39:13.185Z,30.60
2022-12-28T07:41:43.187Z,23.20
2022-12-28T07:44:12.195Z,25.20
2022-12-28T07:46:40.747Z,19.00
2022-12-28T07:49:09.773Z,25.80
2022-12-28T07:51:39.934Z,16.00
2022-12-28T07:54:09.073Z,21.20
2022-12-28T07:59:07.533Z,19.80
2022-12-28T08:01:37.805Z,21.60
2022-12-28T08:04:09.825Z,23.20
2022-12-28T08:06:40.752Z,23.00
2022-12-28T08:09:11.472Z,28.00
2022-12-28T08:11:42.071Z,26.00
2022-12-28T08:14:12.943Z,20.60
2022-12-28T08:16:43.650Z,25.20
2022-12-28T08:19:13.652Z,13.60
2022-12-28T08:21:44.690Z,19.60
2022-12-28T08:24:16.852Z,2.00
2022-12-28T08:26:46.721Z,13.60
2022-12-28T08:29:19.549Z,19.00
2022-12-28T08:31:48.655Z,22.80
2022-12-28T08:34:19.668Z,25.00
2022-12-28T08:36:48.360Z,14.80
2022-12-28T08:39:17.231Z,18.40
2022-12-28T08:41:46.516Z,16.00
2022-12-28T08:44:16.797Z,14.40
2022-12-28T08:46:45.517Z,14.00
2022-12-28T08:49:14.891Z,25.60
2022-12-28T08:51:43.823Z,11.20
2022-12-28T08:54:14.850Z,13.20
2022-12-28T08:56:45.797Z,14.00
2022-12-28T08:59:19.434Z,14.40
2022-12-28T09:01:48.932Z,22.80
2022-12-28T09:04:19.970Z,21.80
2022-12-28T09:06:50.041Z,11.20
2022-12-28T09:09:21.006Z,16.00
2022-12-28T09:11:50.362Z,14.60
2022-12-28T09:14:24.262Z,13.00
2022-12-28T09:16:54.219Z,26.20
2022-12-28T09:19:23.324Z,16.20
2022-12-28T09:21:53.845Z,18.20
2022-12-28T09:24:23.038Z,11.80
2022-12-28T09:26:54.837Z,18.80
2022-12-28T09:29:24.911Z,22.00
2022-12-28T09:31:53.866Z,15.60
2022-12-28T09:34:35.483Z,16.80
2022-12-28T09:37:06.226Z,15.80
2022-12-28T09:39:35.335Z,21.20
2022-12-28T09:42:07.681Z,18.40
2022-12-28T09:44:50.321Z,22.00
2022-12-28T09:47:26.664Z,16.00
2022-12-28T09:50:04.899Z,16.20
2022-12-28T09:52:36.254Z,16.00
2022-12-28T09:55:13.637Z,19.80
2022-12-28T09:57:46.836Z,15.60
2022-12-28T10:00:22.326Z,13.20
2022-12-28T10:02:56.291Z,15.20
2022-12-28T10:05:25.052Z,17.60
2022-12-28T10:07:55.630Z,15.00
2022-12-28T10:10:26.016Z,16.80
2022-12-28T10:12:56.004Z,16.60
2022-12-28T10:15:29.575Z,15.00
2022-12-28T10:17:58.548Z,16.20
2022-12-28T10:20:27.243Z,11.80
2022-12-28T10:22:58.942Z,5.40
2022-12-28T10:25:28.734Z,5.40
2022-12-28T10:27:58.219Z,23.40
2022-12-28T10:30:28.641Z,18.20
2022-12-28T10:33:03.186Z,38.00
2022-12-28T10:35:39.795Z,44.00
2022-12-28T10:38:21.197Z,38.20
2022-12-28T10:40:59.396Z,40.25
2022-12-28T10:43:34.485Z,38.75
2022-12-28T10:46:07.762Z,43.25
2022-12-28T10:48:39.705Z,48.00
2022-12-28T10:51:14.703Z,47.50
2022-12-28T10:53:46.308Z,53.25
2022-12-28T10:56:27.217Z,47.25
2022-12-28T10:59:20.284Z,36.25
2022-12-28T11:01:50.349Z,33.60
2022-12-28T11:04:21.520Z,37.00
2022-12-28T11:06:54.891Z,43.25
2022-12-28T11:09:26.745Z,37.00
2022-12-28T11:11:56.978Z,30.80
2022-12-28T11:14:33.150Z,29.20
2022-12-28T11:17:16.568Z,34.80
2022-12-28T11:19:45.984Z,28.80
2022-12-28T11:22:18.860Z,27.00
2022-12-28T11:24:47.866Z,30.20
2022-12-28T11:27:20.800Z,23.60
2022-12-28T11:29:52.730Z,34.75
2022-12-28T11:32:26.504Z,30.20
2022-12-28T11:34:57.615Z,30.40
2022-12-28T11:37:26.411Z,19.25
2022-12-28T11:39:55.690Z,30.00
2022-12-28T11:42:55.221Z,24.60
2022-12-28T11:45:57.103Z,39.00
2022-12-28T11:48:57.147Z,35.50
2022-12-28T11:51:28.419Z,37.75
2022-12-28T11:54:00.193Z,40.50
2022-12-28T11:56:59.000Z,41.50
2022-12-28T11:59:29.142Z,39.75
2022-12-28T12:02:00.422Z,42.75
2022-12-28T12:04:45.085Z,47.75
2022-12-28T12:07:23.662Z,31.50
2022-12-28T12:10:35.746Z,39.20
2022-12-28T12:13:44.306Z,31.00
2022-12-28T12:16:32.411Z,16.20
2022-12-28T12:19:03.841Z,24.00
2022-12-28T12:21:39.260Z,25.60
2022-12-28T12:24:20.996Z,30.20
2022-12-28T12:26:53.928Z,31.00
2022-12-28T12:29:29.250Z,30.60
2022-12-28T12:32:02.335Z,32.60
2022-12-28T12:34:41.265Z,32.40
2022-12-28T12:37:43.236Z,32.20
2022-12-28T12:40:39.792Z,35.25
2022-12-28T12:43:23.344Z,23.20
2022-12-28T12:46:01.762Z,32.20
2022-12-28T12:48:44.339Z,34.40
2022-12-28T12:51:26.691Z,31.75
2022-12-28T12:54:13.891Z,34.50
2022-12-28T12:56:50.872Z,37.50
2022-12-28T12:59:46.237Z,38.75
2022-12-28T13:02:32.308Z,41.25
2022-12-28T13:05:04.391Z,39.25
2022-12-28T13:07:34.954Z,34.50
2022-12-28T13:10:06.388Z,39.25
2022-12-28T13:12:37.678Z,39.25
2022-12-28T13:15:12.551Z,37.50
2022-12-28T13:18:18.068Z,45.50
2022-12-28T13:20:55.603Z,46.75
2022-12-28T13:23:26.378Z,53.75
2022-12-28T13:25:59.539Z,42.25
2022-12-28T13:28:30.776Z,51.75
2022-12-28T13:31:06.532Z,44.75
2022-12-28T13:33:35.689Z,41.25
2022-12-28T13:36:14.974Z,49.00
2022-12-28T13:38:44.150Z,50.75
2022-12-28T13:41:25.003Z,53.25
2022-12-28T13:44:23.158Z,44.00
2022-12-28T13:46:57.496Z,54.00
2022-12-28T13:49:28.897Z,57.75
2022-12-28T13:51:57.587Z,52.00
2022-12-28T13:54:27.116Z,55.25
2022-12-28T13:57:14.743Z,56.00
2022-12-28T13:59:48.698Z,55.50
2022-12-28T14:02:21.466Z,59.75
2022-12-28T14:04:54.840Z,50.25
2022-12-28T14:07:27.893Z,58.75
2022-12-28T14:09:58.238Z,57.00
2022-12-28T14:12:28.842Z,57.25
2022-12-28T14:14:59.403Z,53.50
2022-12-28T14:17:28.719Z,56.25
2022-12-28T14:19:58.562Z,61.75
2022-12-28T14:22:32.614Z,48.75
2022-12-28T14:25:03.949Z,57.50
2022-12-28T14:27:37.036Z,57.50
2022-12-28T14:30:08.235Z,54.25
2022-12-28T14:32:42.534Z,50.25
2022-12-28T14:35:19.569Z,57.25
2022-12-28T14:37:53.677Z,54.25
2022-12-28T14:40:30.436Z,44.25
2022-12-28T14:43:06.723Z,54.75
2022-12-28T14:46:04.860Z,60.50
2022-12-28T14:48:38.058Z,56.00
2022-12-28T14:51:25.717Z,57.25
2022-12-28T14:54:17.952Z,56.50
2022-12-28T14:56:50.730Z,55.00
2022-12-28T14:59:26.141Z,58.00
2022-12-28T15:01:55.267Z,53.00
2022-12-28T15:04:37.235Z,58.00
2022-12-28T15:07:07.288Z,57.50
2022-12-28T15:09:36.761Z,55.75
2022-12-28T15:12:14.657Z,58.50
2022-12-28T15:14:44.984Z,63.75
2022-12-28T15:17:14.111Z,65.25
2022-12-28T15:19:44.985Z,62.25
2022-12-28T15:22:14.510Z,61.50
2022-12-28T15:24:45.345Z,57.00
2022-12-28T15:27:14.504Z,55.25
2022-12-28T15:32:34.513Z,49.00
2022-12-28T15:35:03.224Z,52.75
2022-12-28T15:37:32.215Z,54.00
2022-12-28T15:40:00.796Z,56.75
2022-12-28T15:42:31.491Z,52.75
2022-12-28T15:45:05.505Z,47.25
2022-12-28T15:47:34.420Z,52.25
2022-12-28T15:50:03.724Z,47.25
2022-12-28T15:52:33.197Z,49.00
2022-12-28T15:55:01.932Z,50.25
2022-12-28T15:57:31.328Z,45.50
2022-12-28T15:59:59.911Z,50.25
2022-12-28T16:02:30.200Z,68.00
2022-12-28T16:04:59.044Z,61.00
2022-12-28T16:07:27.905Z,45.00
2022-12-28T16:09:56.503Z,60.00
2022-12-28T16:12:25.298Z,56.50
2022-12-28T16:14:53.787Z,57.00
2022-12-28T16:17:22.685Z,62.75
2022-12-28T16:19:52.606Z,61.50
2022-12-28T16:22:21.471Z,63.75
2022-12-28T16:24:50.051Z,62.00
2022-12-28T16:27:19.243Z,61.00
2022-12-28T16:29:52.660Z,63.25
2022-12-28T16:32:24.607Z,59.25
2022-12-28T16:34:56.508Z,64.25
2022-12-28T16:37:25.502Z,62.50
2022-12-28T16:39:54.032Z,50.00
2022-12-28T16:42:23.419Z,60.25
2022-12-28T16:44:52.031Z,61.00
2022-12-28T16:47:21.241Z,61.75
2022-12-28T16:49:49.842Z,59.00
2022-12-28T16:52:20.113Z,57.50
2022-12-28T16:54:48.764Z,62.50
2022-12-28T16:57:17.601Z,58.75
2022-12-28T16:59:46.342Z,60.50
2022-12-28T17:02:15.368Z,61.00
2022-12-28T17:04:44.411Z,59.50
2022-12-28T17:07:13.271Z,60.75
2022-12-28T17:09:49.961Z,63.25
2022-12-28T17:12:19.277Z,58.25
2022-12-28T17:14:47.885Z,53.50
2022-12-28T17:17:16.832Z,65.00
2022-12-28T17:19:45.571Z,60.50
2022-12-28T17:22:14.486Z,54.25
2022-12-28T17:24:44.573Z,62.50
2022-12-28T17:27:18.828Z,57.75
2022-12-28T17:29:48.102Z,50.25
2022-12-28T17:32:17.587Z,57.50
2022-12-28T17:34:46.446Z,60.00
2022-12-28T17:37:15.348Z,58.75
2022-12-28T17:39:45.390Z,53.75
2022-12-28T17:42:14.255Z,56.00
2022-12-28T17:44:45.793Z,49.25
2022-12-28T17:47:14.663Z,65.00
2022-12-28T17:49:43.501Z,55.00
2022-12-28T17:52:17.335Z,57.75
2022-12-28T17:54:47.261Z,61.75
2022-12-28T17:57:16.874Z,62.00
2022-12-28T17:59:45.560Z,59.00
2022-12-28T18:02:14.872Z,56.25
2022-12-28T18:04:43.605Z,59.00
2022-12-28T18:07:12.694Z,55.50
2022-12-28T18:09:41.262Z,51.50
2022-12-28T18:12:11.591Z,52.50
2022-12-28T18:14:40.179Z,56.50
2022-12-28T18:17:09.189Z,55.00
2022-12-28T18:19:37.827Z,38.25
2022-12-28T18:22:06.829Z,37.75
2022-12-28T18:24:35.515Z,43.75
2022-12-28T18:27:04.332Z,39.50
2022-12-28T18:29:34.288Z,41.50
2022-12-28T18:32:03.321Z,53.50
2022-12-28T18:34:32.301Z,42.00
2022-12-28T18:37:01.190Z,40.50
2022-12-28T18:39:29.985Z,41.00
2022-12-28T18:41:58.882Z,43.00
2022-12-28T18:44:27.697Z,40.75
2022-12-28T18:46:58.234Z,45.25
2022-12-28T18:49:29.254Z,43.00
2022-12-28T18:51:58.200Z,51.25
2022-12-28T18:54:26.830Z,50.25
2022-12-28T18:56:56.330Z,41.50
2022-12-28T18:59:24.915Z,38.50
2022-12-28T19:02:14.344Z,48.00
2022-12-28T19:04:44.108Z,49.25
2022-12-28T19:07:13.098Z,38.75
2022-12-28T19:10:06.336Z,45.75
2022-12-28T19:12:39.611Z,44.00
2022-12-28T19:15:09.658Z,43.00
2022-12-28T19:17:38.673Z,42.00
2022-12-28T19:20:09.565Z,43.75
2022-12-28T19:22:38.733Z,45.50
2022-12-28T19:25:08.508Z,38.50
2022-12-28T19:27:37.472Z,38.50
2022-12-28T19:30:07.016Z,33.20
2022-12-28T19:32:35.912Z,39.50
2022-12-28T19:35:04.775Z,37.25
2022-12-28T19:37:35.001Z,40.25
2022-12-28T19:40:03.643Z,39.25
2022-12-28T19:42:32.607Z,40.75
2022-12-28T19:45:06.383Z,36.50
2022-12-28T19:47:38.728Z,38.25
2022-12-28T19:50:07.891Z,34.25
2022-12-28T19:52:38.186Z,36.00
2022-12-28T19:55:07.381Z,32.75
2022-12-28T19:57:38.631Z,36.50
2022-12-28T20:00:08.590Z,40.00
2022-12-28T20:02:37.633Z,39.00
2022-12-28T20:05:07.333Z,35.25
2022-12-28T20:07:39.933Z,37.50
2022-12-28T20:10:09.031Z,40.75
2022-12-28T20:12:38.246Z,41.25
2022-12-28T20:15:08.055Z,46.00
2022-12-28T20:17:36.983Z,37.20
2022-12-28T20:20:06.378Z,42.00
2022-12-28T20:22:35.281Z,38.75
2022-12-28T20:25:05.800Z,40.50
2022-12-28T20:27:34.730Z,45.50
2022-12-28T20:30:03.517Z,38.75
2022-12-28T20:32:32.534Z,36.00
2022-12-28T20:35:01.092Z,34.00
2022-12-28T20:37:29.973Z,41.75
2022-12-28T20:39:58.478Z,46.75
2022-12-28T20:42:46.684Z,49.50
2022-12-28T20:45:15.258Z,32.75
2022-12-28T20:47:44.118Z,36.00
2022-12-28T20:50:12.650Z,44.25
2022-12-28T20:52:41.531Z,46.25
2022-12-28T20:55:10.069Z,40.75
2022-12-28T20:57:40.444Z,41.33
2022-12-28T21:00:10.371Z,52.50
2022-12-28T21:02:39.446Z,36.00
2022-12-28T21:05:08.962Z,40.25
2022-12-28T21:07:37.917Z,38.75
2022-12-28T21:10:07.276Z,39.50
2022-12-28T21:12:36.163Z,43.00
2022-12-28T21:15:08.243Z,38.00
2022-12-28T21:17:37.677Z,39.75
2022-12-28T21:20:07.054Z,35.50
2022-12-28T21:22:36.219Z,45.75
2022-12-28T21:25:05.759Z,33.00
2022-12-28T21:27:34.852Z,36.75
2022-12-28T21:30:03.455Z,32.00
2022-12-28T21:32:33.756Z,36.50
2022-12-28T21:35:02.487Z,41.50
2022-12-28T21:37:37.770Z,39.75
2022-12-28T21:40:09.700Z,39.00
2022-12-28T21:42:38.912Z,48.75
2022-12-28T21:45:08.736Z,41.75
2022-12-28T21:47:39.250Z,50.25
2022-12-28T21:50:10.360Z,41.00
2022-12-28T21:52:39.817Z,52.50
2022-12-28T21:55:26.906Z,46.75
2022-12-28T21:57:57.197Z,50.75
2022-12-28T22:00:45.905Z,55.75
2022-12-28T22:03:34.014Z,58.25
2022-12-28T22:06:06.549Z,48.25
2022-12-28T22:09:07.497Z,58.50
2022-12-28T22:11:53.455Z,60.25
2022-12-28T22:14:22.695Z,50.00
2022-12-28T22:16:51.503Z,39.75
2022-12-28T22:19:21.815Z,54.00
2022-12-28T22:21:50.654Z,55.50
2022-12-28T22:24:19.482Z,43.00
2022-12-28T22:26:48.262Z,44.75
2022-12-28T22:29:17.573Z,50.75
2022-12-28T22:31:46.143Z,53.75
2022-12-28T22:34:15.163Z,55.67
2022-12-28T22:36:45.085Z,50.50
2022-12-28T22:39:13.869Z,47.00
2022-12-28T22:41:42.532Z,48.75
2022-12-28T22:44:11.391Z,49.75
2022-12-28T22:46:39.924Z,59.00
2022-12-28T22:49:08.810Z,52.25
2022-12-28T22:51:37.312Z,53.25
2022-12-28T22:54:08.114Z,55.25
2022-12-28T22:56:36.621Z,54.50
2022-12-28T22:59:08.564Z,51.25
2022-12-28T23:01:40.002Z,56.00
2022-12-28T23:04:08.962Z,55.50
2022-12-28T23:06:37.520Z,54.75
2022-12-28T23:09:08.545Z,56.25
2022-12-28T23:11:39.820Z,57.00
2022-12-28T23:14:28.957Z,61.75
2022-12-28T23:16:57.798Z,62.50
2022-12-28T23:19:44.364Z,47.50
2022-12-28T23:22:32.075Z,63.50
2022-12-28T23:25:20.028Z,60.50
2022-12-28T23:27:50.739Z,55.50
2022-12-28T23:30:22.519Z,64.25
2022-12-28T23:32:54.412Z,59.50
2022-12-28T23:35:25.328Z,67.00
2022-12-28T23:37:54.352Z,66.25
2022-12-28T23:40:25.120Z,65.50
2022-12-28T23:42:54.163Z,67.00
2022-12-28T23:45:23.793Z,67.00
2022-12-28T23:47:54.414Z,66.25
2022-12-28T23:50:23.414Z,65.00
2022-12-28T23:52:52.017Z,60.00
2022-12-28T23:55:20.893Z,61.75
2022-12-28T23:57:50.711Z,35.25
